Time;durP1;ratioP1;P1;durP2;ratioP2;P2;SDS_P1;SDS_P2;PMS_P1;PMS_P2;Temp;Humidity;BMP_temperature;BMP_pressure;BME280_temperature;BME280_humidity;BME280_pressure;Samples;Min_cycle;Max_cycle;Signal;HPM_P1;HPM_P2
2021/09/22 00:01:51;;;;;;;4.65;2.80;;;;;;;18.94;38.05;102575.22;5009798;28;20137;-73
2021/09/22 00:04:18;;;;;;;5.15;2.47;;;;;;;18.93;38.16;102588.09;5008488;28;20086;-73
2021/09/22 00:06:44;;;;;;;5.07;2.33;;;;;;;18.91;37.81;102578.19;5009565;28;20054;-73
2021/09/22 00:09:11;;;;;;;3.90;2.30;;;;;;;18.89;38.28;102575.53;5008636;28;20543;-74
2021/09/22 00:11:38;;;;;;;5.20;2.60;;;;;;;18.88;38.29;102581.16;5009729;28;20579;-73
2021/09/22 00:14:05;;;;;;;4.43;2.45;;;;;;;18.85;38.11;102579.53;4991005;28;20141;-74
2021/09/22 00:16:31;;;;;;;4.65;2.50;;;;;;;18.84;37.98;102579.63;5009486;28;20073;-74
2021/09/22 00:18:58;;;;;;;4.25;2.45;;;;;;;18.81;38.43;102582.59;5008065;28;20046;-74
2021/09/22 00:21:25;;;;;;;4.45;2.50;;;;;;;18.80;38.10;102589.09;5009443;28;20523;-73
2021/09/22 00:23:51;;;;;;;4.43;2.50;;;;;;;18.78;38.54;102588.31;5008145;28;20045;-74
2021/09/22 00:26:18;;;;;;;4.60;2.60;;;;;;;18.75;38.42;102585.81;4991842;28;20088;-74
2021/09/22 00:28:44;;;;;;;5.30;2.60;;;;;;;18.74;38.45;102584.06;5011248;28;20045;-74
2021/09/22 00:31:11;;;;;;;4.20;2.40;;;;;;;18.72;38.78;102584.16;5023913;28;20063;-73
2021/09/22 00:33:37;;;;;;;4.78;2.78;;;;;;;18.71;38.46;102589.78;5020954;28;20049;-73
2021/09/22 00:36:04;;;;;;;4.43;2.50;;;;;;;18.68;38.35;102596.41;4991351;28;20136;-73
2021/09/22 00:38:32;;;;;;;4.45;2.30;;;;;;;18.66;38.69;102592.00;5008184;28;20052;-73
2021/09/22 00:40:59;;;;;;;4.50;2.45;;;;;;;18.64;38.57;102592.09;4991639;28;20612;-72
2021/09/22 00:43:25;;;;;;;5.43;2.60;;;;;;;18.63;38.51;102593.97;4990598;28;20479;-73
2021/09/22 00:45:52;;;;;;;4.32;2.80;;;;;;;18.60;38.97;102598.84;4991118;28;20331;-73
2021/09/22 00:48:21;;;;;;;4.28;2.63;;;;;;;18.58;38.66;102590.69;5007968;28;20150;-74
2021/09/22 00:50:49;;;;;;;4.78;2.70;;;;;;;18.57;38.54;102594.44;4991571;28;20054;-74
2021/09/22 00:53:16;;;;;;;4.57;2.53;;;;;;;18.55;38.44;102589.97;4977664;28;20479;-73
2021/09/22 00:55:45;;;;;;;4.32;2.30;;;;;;;18.54;39.08;102589.09;5008630;28;20475;-73
2021/09/22 00:58:24;;;;;;;4.57;2.53;;;;;;;18.50;38.70;102587.59;5008444;28;20133;-73
2021/09/22 01:00:51;;;;;;;6.50;2.78;;;;;;;18.47;38.54;102584.16;5015987;28;20092;-73
2021/09/22 01:03:19;;;;;;;4.53;2.65;;;;;;;18.46;39.04;102582.41;5007850;28;20128;-73
2021/09/22 01:05:46;;;;;;;5.18;2.70;;;;;;;18.44;39.20;102584.41;5008249;28;20053;-73
2021/09/22 01:08:15;;;;;;;4.88;2.90;;;;;;;18.43;39.05;102586.28;5007464;28;20491;-73
2021/09/22 01:10:44;;;;;;;4.30;2.80;;;;;;;18.42;39.28;102586.38;4990951;28;20085;-73
2021/09/22 01:13:11;;;;;;;5.35;2.90;;;;;;;18.37;39.17;102578.44;5007728;28;20046;-73
2021/09/22 01:15:39;;;;;;;5.43;3.20;;;;;;;18.36;39.15;102581.31;4990869;28;20081;-73
2021/09/22 01:18:10;;;;;;;4.25;2.47;;;;;;;18.33;38.77;102585.16;4958619;28;20058;-73
2021/09/22 01:20:38;;;;;;;5.15;2.83;;;;;;;18.31;38.81;102586.25;4998543;28;20561;-73
2021/09/22 01:23:06;;;;;;;4.25;2.95;;;;;;;18.31;39.19;102584.38;5007373;28;20422;-73
2021/09/22 01:25:36;;;;;;;5.47;2.97;;;;;;;18.31;39.51;102589.00;5011039;28;20128;-73
2021/09/22 01:28:04;;;;;;;4.88;2.72;;;;;;;18.29;39.21;102588.22;4989642;28;20354;-72
2021/09/22 01:30:32;;;;;;;4.90;2.83;;;;;;;18.27;39.32;102591.13;5011487;28;20046;-72
2021/09/22 01:33:05;;;;;;;4.28;2.80;;;;;;;18.28;39.34;102592.00;4989524;28;20077;-72
2021/09/22 01:35:38;;;;;;;6.57;3.00;;;;;;;18.26;39.60;102597.59;5008043;28;20538;-73
2021/09/22 01:38:09;;;;;;;4.68;2.78;;;;;;;18.22;39.62;102596.03;4990020;28;20133;-73
2021/09/22 01:40:36;;;;;;;4.82;2.83;;;;;;;18.20;39.47;102587.06;4990578;28;20089;-73
2021/09/22 01:43:04;;;;;;;5.20;2.90;;;;;;;18.18;39.15;102589.91;5025293;23;20132;-72
2021/09/22 01:45:32;;;;;;;5.18;3.17;;;;;;;18.17;39.28;102581.75;5029692;28;20435;-73
2021/09/22 01:47:59;;;;;;;5.10;2.95;;;;;;;18.14;39.39;102570.97;5046589;28;20504;-73
2021/09/22 01:50:26;;;;;;;6.43;3.00;;;;;;;18.12;39.62;102570.19;5029819;28;20080;-73
2021/09/22 01:52:53;;;;;;;4.95;2.88;;;;;;;18.09;38.99;102574.06;5046169;28;20417;-73
2021/09/22 01:55:22;;;;;;;4.72;2.88;;;;;;;18.10;39.63;102570.34;5047435;28;20144;-72
2021/09/22 01:57:49;;;;;;;5.90;3.10;;;;;;;18.07;39.31;102570.53;5046153;28;20045;-73
2021/09/22 02:00:20;;;;;;;4.28;2.80;;;;;;;18.05;39.80;102569.75;5054942;28;20053;-72
2021/09/22 02:02:46;;;;;;;5.30;3.10;;;;;;;18.04;39.83;102570.75;5065650;28;20112;-72
2021/09/22 02:05:13;;;;;;;6.15;2.95;;;;;;;18.01;39.67;102559.09;5059683;28;20136;-72
2021/09/22 02:07:40;;;;;;;4.93;2.80;;;;;;;18.00;39.65;102562.84;5046156;28;20055;-72
2021/09/22 02:10:07;;;;;;;4.97;2.90;;;;;;;17.99;39.40;102569.31;5029309;28;20136;-72
2021/09/22 02:12:33;;;;;;;5.32;2.65;;;;;;;17.96;39.90;102566.78;5045815;28;20059;-72
2021/09/22 02:15:00;;;;;;;5.18;2.90;;;;;;;17.94;39.95;102568.78;5047032;28;20063;-72
2021/09/22 02:17:27;;;;;;;5.68;3.15;;;;;;;17.91;39.95;102556.13;5028989;28;20548;-72
2021/09/22 02:19:53;;;;;;;6.78;3.28;;;;;;;17.89;39.74;102558.09;5046291;28;20128;-73
2021/09/22 02:22:20;;;;;;;4.18;2.60;;;;;;;17.87;40.01;102551.84;5047105;28;20091;-73
2021/09/22 02:24:46;;;;;;;4.38;2.90;;;;;;;17.86;39.56;102550.09;5020259;28;20498;-72
2021/09/22 02:27:15;;;;;;;5.35;2.97;;;;;;;17.86;39.81;102547.34;5029176;28;20056;-73
2021/09/22 02:29:42;;;;;;;4.38;3.03;;;;;;;17.81;40.09;102546.75;5061483;28;20055;-73
2021/09/22 02:32:09;;;;;;;4.60;2.70;;;;;;;17.80;39.86;102542.25;5028485;28;20476;-72
2021/09/22 02:34:36;;;;;;;5.90;3.13;;;;;;;17.77;39.96;102548.88;5027953;28;20055;-73
2021/09/22 02:37:04;;;;;;;4.68;2.92;;;;;;;17.77;40.22;102550.72;5046359;28;20545;-73
2021/09/22 02:39:31;;;;;;;4.85;3.10;;;;;;;17.75;39.49;102552.69;5045512;28;20470;-73
2021/09/22 02:41:58;;;;;;;5.25;3.33;;;;;;;17.73;39.98;102550.06;5046429;28;20433;-72
2021/09/22 02:44:26;;;;;;;4.70;2.95;;;;;;;17.72;39.81;102552.91;5045566;28;20080;-72
2021/09/22 02:46:53;;;;;;;4.60;2.75;;;;;;;17.69;39.55;102544.91;5027978;28;20049;-73
2021/09/22 02:49:20;;;;;;;5.30;3.13;;;;;;;17.67;40.01;102550.50;5045081;28;20125;-73
2021/09/22 02:51:47;;;;;;;5.10;3.33;;;;;;;17.66;40.11;102551.47;5046140;28;20055;-72
2021/09/22 02:54:14;;;;;;;5.97;3.20;;;;;;;17.64;40.02;102558.06;5045531;28;20135;-72
2021/09/22 02:56:41;;;;;;;5.57;3.10;;;;;;;17.63;39.70;102559.03;5045916;28;20059;-73
2021/09/22 02:59:07;;;;;;;5.90;3.53;;;;;;;17.61;40.17;102555.50;5051288;28;20127;-72
2021/09/22 03:01:34;;;;;;;6.53;3.47;;;;;;;17.59;40.09;102558.34;5047556;28;20564;-72
2021/09/22 03:04:01;;;;;;;4.93;3.10;;;;;;;17.57;39.96;102552.06;5027671;28;20052;-73
2021/09/22 03:06:28;;;;;;;5.40;3.17;;;;;;;17.54;40.10;102556.91;5028258;28;20520;-73
2021/09/22 03:08:55;;;;;;;5.78;3.45;;;;;;;17.53;40.18;102557.91;5045142;28;20045;-73
2021/09/22 03:11:21;;;;;;;5.63;2.90;;;;;;;17.50;39.98;102551.63;5028349;28;20136;-73
2021/09/22 03:13:48;;;;;;;5.18;3.40;;;;;;;17.47;40.15;102546.34;5045105;28;20127;-72
2021/09/22 03:16:14;;;;;;;5.20;3.35;;;;;;;17.45;40.15;102551.06;5027008;28;20053;-72
2021/09/22 03:18:41;;;;;;;5.72;3.20;;;;;;;17.43;40.01;102546.66;5045118;28;20052;-73
2021/09/22 03:21:08;;;;;;;5.65;3.40;;;;;;;17.40;40.24;102542.25;5045953;28;20132;-73
2021/09/22 03:23:34;;;;;;;7.22;3.45;;;;;;;17.39;40.04;102545.97;5027257;28;20560;-73
2021/09/22 03:26:01;;;;;;;4.60;3.10;;;;;;;17.37;40.05;102552.59;5027932;28;20132;-73
2021/09/22 03:28:27;;;;;;;5.78;3.22;;;;;;;17.36;39.99;102548.97;5037185;28;20570;-73
2021/09/22 03:30:54;;;;;;;3.83;2.90;;;;;;;17.34;40.50;102552.78;5058719;28;20052;-72
2021/09/22 03:33:20;;;;;;;5.80;3.00;;;;;;;17.33;39.94;102543.66;5064754;28;20488;-73
2021/09/22 03:35:47;;;;;;;4.97;3.50;;;;;;;17.31;40.00;102547.50;5065520;28;20135;-73
2021/09/22 03:38:13;;;;;;;6.18;3.75;;;;;;;17.28;40.54;102545.84;5044990;28;20132;-73
2021/09/22 03:40:41;;;;;;;5.70;3.03;;;;;;;17.27;40.05;102549.59;5027979;28;20516;-72
2021/09/22 03:43:07;;;;;;;5.80;3.30;;;;;;;17.26;40.30;102546.94;5026880;28;20132;-72
2021/09/22 03:45:34;;;;;;;4.82;3.25;;;;;;;17.24;40.17;102541.53;5045512;28;20059;-73
2021/09/22 03:48:01;;;;;;;5.55;3.40;;;;;;;17.22;40.39;102540.75;5044590;28;20424;-73
2021/09/22 03:50:27;;;;;;;5.18;3.15;;;;;;;17.19;40.66;102538.25;5028111;28;20136;-72
2021/09/22 03:52:54;;;;;;;5.47;3.45;;;;;;;17.18;40.45;102536.47;5044685;28;20572;-73
2021/09/22 03:55:20;;;;;;;4.88;3.25;;;;;;;17.18;40.15;102538.34;5045150;28;20478;-73
2021/09/22 03:57:47;;;;;;;4.57;3.25;;;;;;;17.16;40.37;102540.31;5026331;28;20124;-72
2021/09/22 04:00:14;;;;;;;5.45;3.55;;;;;;;17.14;40.70;102543.16;5045722;28;20124;-73
2021/09/22 04:02:40;;;;;;;6.05;3.53;;;;;;;17.11;40.17;102538.78;5026949;28;20137;-72
2021/09/22 04:05:08;;;;;;;5.65;3.78;;;;;;;17.10;40.57;102544.34;5045752;28;20057;-73
2021/09/22 04:07:34;;;;;;;6.00;3.85;;;;;;;17.08;40.57;102544.44;5026758;28;20051;-72
2021/09/22 04:10:01;;;;;;;6.95;3.83;;;;;;;17.06;40.39;102535.44;5045784;28;20475;-73
2021/09/22 04:12:28;;;;;;;5.55;3.72;;;;;;;17.05;40.28;102541.03;5045195;28;20145;-73
2021/09/22 04:14:54;;;;;;;5.70;3.72;;;;;;;17.02;40.60;102544.88;5044752;28;20087;-73
2021/09/22 04:17:21;;;;;;;7.10;4.28;;;;;;;17.01;40.45;102543.09;5027234;28;20092;-73
2021/09/22 04:19:48;;;;;;;5.75;4.20;;;;;;;16.99;40.85;102550.56;4985769;28;20061;-72
2021/09/22 04:22:14;;;;;;;6.22;4.07;;;;;;;16.98;40.63;102557.03;5045294;28;20056;-73
2021/09/22 04:24:41;;;;;;;6.60;3.85;;;;;;;16.96;40.63;102559.00;5044116;28;20052;-72
2021/09/22 04:27:08;;;;;;;6.43;4.00;;;;;;;16.95;40.80;102549.00;5047059;28;20131;-72
2021/09/22 04:29:34;;;;;;;5.50;4.20;;;;;;;16.94;40.60;102555.47;5048231;28;20221;-73
2021/09/22 04:32:00;;;;;;;6.50;4.00;;;;;;;16.93;40.69;102564.69;5048770;28;20053;-73
2021/09/22 04:34:27;;;;;;;5.80;4.60;;;;;;;16.92;40.50;102573.03;5047813;28;20053;-72
2021/09/22 04:36:54;;;;;;;5.82;3.83;;;;;;;16.92;40.46;102573.03;5048649;28;20085;-73
2021/09/22 04:39:20;;;;;;;6.75;4.40;;;;;;;16.89;40.69;102568.59;5048080;28;20076;-73
2021/09/22 04:41:47;;;;;;;6.43;4.05;;;;;;;16.87;40.72;102559.63;5049048;28;20137;-73
2021/09/22 04:44:13;;;;;;;5.70;3.45;;;;;;;16.85;40.96;102569.81;5047514;28;20041;-73
2021/09/22 04:46:40;;;;;;;5.75;3.85;;;;;;;16.84;40.91;102559.81;5048437;28;20487;-75
2021/09/22 04:49:06;;;;;;;6.45;4.10;;;;;;;16.82;40.57;102558.13;5047775;28;20120;-75
2021/09/22 04:51:33;;;;;;;6.28;3.63;;;;;;;16.81;40.64;102557.25;5031183;28;20144;-75
2021/09/22 04:54:00;;;;;;;6.07;3.90;;;;;;;16.79;41.16;102556.50;5026642;28;20135;-75
2021/09/22 04:56:26;;;;;;;6.90;4.13;;;;;;;16.77;40.73;102561.19;5030930;28;20080;-74
2021/09/22 04:58:53;;;;;;;6.45;3.92;;;;;;;16.76;40.88;102567.66;5059942;28;20044;-74
2021/09/22 05:01:19;;;;;;;5.68;3.95;;;;;;;16.74;41.18;102564.13;5068363;28;20504;-74
2021/09/22 05:03:46;;;;;;;6.30;4.15;;;;;;;16.72;40.78;102563.34;5054721;28;20048;-74
2021/09/22 05:06:13;;;;;;;5.65;3.97;;;;;;;16.72;40.91;102563.34;5048287;28;20055;-74
2021/09/22 05:08:39;;;;;;;6.45;4.32;;;;;;;16.70;41.04;102570.81;5029278;28;20132;-75
2021/09/22 05:11:06;;;;;;;7.07;4.45;;;;;;;16.69;41.63;102564.44;5048485;28;20143;-74
2021/09/22 05:13:32;;;;;;;6.78;4.13;;;;;;;16.69;41.48;102566.31;5047144;28;20127;-74
2021/09/22 05:15:59;;;;;;;6.05;3.80;;;;;;;16.67;40.92;102563.66;5048400;28;20073;-74
2021/09/22 05:18:25;;;;;;;5.70;3.85;;;;;;;16.65;41.21;102562.88;5029693;28;20045;-74
2021/09/22 05:20:52;;;;;;;5.75;3.78;;;;;;;16.66;41.27;102570.13;5030204;28;20542;-74
2021/09/22 05:23:19;;;;;;;7.43;4.25;;;;;;;16.65;41.40;102570.22;5046979;28;20132;-74
2021/09/22 05:25:45;;;;;;;5.88;4.22;;;;;;;16.64;41.37;102572.06;5030200;28;20095;-74
2021/09/22 05:28:12;;;;;;;7.78;3.80;;;;;;;16.63;41.29;102577.69;5036113;28;20045;-74
2021/09/22 05:30:38;;;;;;;7.20;4.05;;;;;;;16.63;41.23;102577.69;5050011;28;20493;-74
2021/09/22 05:33:10;;;;;;;6.05;3.92;;;;;;;16.64;41.21;102574.81;5046208;28;20046;-74
2021/09/22 05:35:45;;;;;;;7.40;3.92;;;;;;;16.61;41.46;102574.16;5031597;28;20080;-74
2021/09/22 05:38:12;;;;;;;5.85;4.18;;;;;;;16.61;41.28;102579.66;5028701;28;20498;-74
2021/09/22 05:40:38;;;;;;;6.82;3.83;;;;;;;16.59;41.38;102576.06;5047496;28;20154;-74
2021/09/22 05:43:05;;;;;;;6.40;4.25;;;;;;;16.59;41.31;102584.31;5046473;28;20128;-74
2021/09/22 05:45:32;;;;;;;6.00;3.90;;;;;;;16.58;41.42;102588.03;5030157;28;20414;-74
2021/09/22 05:47:58;;;;;;;7.38;4.15;;;;;;;16.57;41.57;102581.66;5046475;28;20055;-74
2021/09/22 05:50:26;;;;;;;7.70;4.22;;;;;;;16.57;41.25;102584.41;5029917;28;20055;-74
2021/09/22 05:52:52;;;;;;;6.90;4.05;;;;;;;16.56;41.57;102588.13;5037147;28;20041;-74
2021/09/22 05:55:19;;;;;;;6.65;4.30;;;;;;;16.56;41.39;102588.13;5046278;28;20605;-74
2021/09/22 05:57:46;;;;;;;6.95;4.45;;;;;;;16.56;41.66;102590.84;5049616;28;20135;-73
2021/09/22 06:00:13;;;;;;;6.68;4.03;;;;;;;16.56;41.48;102590.84;5043459;28;20172;-77
2021/09/22 06:02:39;;;;;;;6.57;3.80;;;;;;;16.56;41.44;102595.47;5046489;28;20425;-75
2021/09/22 06:05:07;;;;;;;6.80;4.47;;;;;;;16.56;41.58;102592.72;5047314;28;20053;-75
2021/09/22 06:07:34;;;;;;;9.68;4.30;;;;;;;16.54;41.71;102601.06;5028104;28;20052;-75
2021/09/22 06:10:00;;;;;;;6.72;3.97;;;;;;;16.55;41.66;102597.34;5046858;28;20080;-75
2021/09/22 06:12:27;;;;;;;6.53;4.35;;;;;;;16.56;42.01;102595.47;5046609;28;20509;-75
2021/09/22 06:14:53;;;;;;;6.95;4.43;;;;;;;16.56;42.01;102599.09;5028561;28;20124;-74
2021/09/22 06:17:20;;;;;;;7.50;4.53;;;;;;;16.57;42.13;102599.97;5029119;28;20515;-65
2021/09/22 06:19:46;;;;;;;6.75;4.45;;;;;;;16.58;42.16;102601.72;5046100;28;20482;-65
2021/09/22 06:22:13;;;;;;;6.57;4.20;;;;;;;16.58;41.97;102607.22;5047552;28;20156;-66
2021/09/22 06:24:40;;;;;;;6.35;4.30;;;;;;;16.60;42.29;102611.63;5045890;28;20490;-65
2021/09/22 06:27:06;;;;;;;5.95;4.20;;;;;;;16.61;42.22;102607.94;5046923;28;20143;-66
2021/09/22 06:29:33;;;;;;;8.52;4.70;;;;;;;16.63;42.30;102610.59;5045535;28;20079;-65
2021/09/22 06:31:59;;;;;;;8.85;4.57;;;;;;;16.65;42.48;102603.13;5046758;28;20049;-65
2021/09/22 06:34:26;;;;;;;5.78;4.10;;;;;;;16.66;42.53;102607.63;5045815;28;20123;-65
2021/09/22 06:36:52;;;;;;;8.07;5.22;;;;;;;16.69;42.51;102610.19;5046679;28;20135;-66
2021/09/22 06:39:19;;;;;;;7.07;4.53;;;;;;;16.70;42.33;102610.09;5045399;28;20114;-66
2021/09/22 06:41:45;;;;;;;6.45;4.10;;;;;;;16.73;42.47;102611.75;5046757;28;20136;-66
2021/09/22 06:44:12;;;;;;;6.65;4.68;;;;;;;16.73;42.55;102609.88;5045584;28;20079;-73
2021/09/22 06:46:38;;;;;;;7.28;4.97;;;;;;;16.77;42.50;102607.84;5045909;28;20052;-71
2021/09/22 06:49:05;;;;;;;7.10;4.93;;;;;;;16.80;42.67;102606.75;5044439;28;20127;-72
2021/09/22 06:51:32;;;;;;;8.35;4.93;;;;;;;16.82;42.76;102611.16;5028104;28;20486;-75
2021/09/22 06:53:58;;;;;;;9.45;4.85;;;;;;;16.85;42.90;102616.44;5045205;28;20056;-75
2021/09/22 06:56:25;;;;;;;6.60;4.45;;;;;;;16.90;42.95;102616.13;5028342;28;20055;-75
2021/09/22 06:58:52;;;;;;;7.00;4.25;;;;;;;16.92;42.97;102605.94;5044363;28;20053;-75
2021/09/22 07:01:19;;;;;;;7.22;5.03;;;;;;;16.95;42.82;102620.34;5028252;28;20059;-74
2021/09/22 07:03:46;;;;;;;7.05;4.68;;;;;;;16.99;42.55;102626.50;5027350;28;20045;-75
2021/09/22 07:06:13;;;;;;;6.75;4.53;;;;;;;17.02;42.60;102618.97;5045825;28;20295;-74
2021/09/22 07:08:40;;;;;;;7.45;4.82;;;;;;;17.05;42.60;102621.47;5027114;28;20525;-75
2021/09/22 07:11:08;;;;;;;8.57;5.20;;;;;;;17.09;42.97;102616.69;5028269;28;20120;-74
2021/09/22 07:13:36;;;;;;;7.72;4.65;;;;;;;17.11;42.50;102615.63;5026914;28;20128;-75
2021/09/22 07:16:03;;;;;;;7.30;4.68;;;;;;;17.15;42.97;102613.53;5045485;28;20080;-75
2021/09/22 07:18:30;;;;;;;8.98;5.25;;;;;;;17.18;43.02;102612.47;5044718;28;20076;-75
2021/09/22 07:20:58;;;;;;;7.65;5.13;;;;;;;17.22;42.60;102620.38;5045862;28;20051;-74
2021/09/22 07:23:25;;;;;;;7.15;4.93;;;;;;;17.25;42.47;102622.03;5044806;28;20589;-75
2021/09/22 07:25:51;;;;;;;8.27;5.10;;;;;;;17.27;42.93;102623.72;5045354;28;20145;-74
2021/09/22 07:28:18;;;;;;;7.95;5.55;;;;;;;17.32;42.52;102631.63;5026925;28;20326;-75
2021/09/22 07:30:44;;;;;;;8.48;5.28;;;;;;;17.34;42.80;102625.06;5045685;28;20338;-75
2021/09/22 07:33:11;;;;;;;7.97;5.28;;;;;;;17.38;43.04;102623.84;5027054;28;20057;-74
2021/09/22 07:35:38;;;;;;;7.53;5.32;;;;;;;17.41;43.03;102626.41;5045501;28;20087;-75
2021/09/22 07:38:04;;;;;;;7.88;5.68;;;;;;;17.46;42.88;102635.19;5026999;28;20049;-74
2021/09/22 07:40:31;;;;;;;9.18;5.07;;;;;;;17.50;42.82;102635.88;5028171;28;20098;-73
2021/09/22 07:42:58;;;;;;;8.52;5.60;;;;;;;17.53;43.04;102641.19;5026842;28;20055;-74
2021/09/22 07:45:25;;;;;;;8.68;5.55;;;;;;;17.58;42.83;102640.84;5027711;28;20542;-75
2021/09/22 07:47:52;;;;;;;8.68;5.60;;;;;;;17.61;42.95;102638.78;5044087;28;20110;-74
2021/09/22 07:50:18;;;;;;;9.18;5.30;;;;;;;17.64;43.20;102638.59;5045309;28;20071;-73
2021/09/22 07:52:45;;;;;;;10.18;6.25;;;;;;;17.68;42.98;102636.53;5022994;28;20125;-74
2021/09/22 07:55:12;;;;;;;8.45;5.28;;;;;;;17.70;42.95;102631.81;5008212;28;20055;-75
2021/09/22 07:57:39;;;;;;;7.85;5.53;;;;;;;17.73;42.82;102626.97;5026653;28;20060;-75
2021/09/22 08:00:07;;;;;;;9.45;6.00;;;;;;;17.78;42.79;102629.44;5053368;28;20342;-75
2021/09/22 08:02:33;;;;;;;9.52;5.88;;;;;;;17.81;42.99;102640.19;5047684;28;20075;-75
2021/09/22 08:05:00;;;;;;;8.70;5.30;;;;;;;17.84;42.75;102638.13;5049156;28;20048;-73
2021/09/22 08:07:41;;;;;;;11.10;6.20;;;;;;;17.89;43.18;102635.03;5032291;28;20087;-73
2021/09/22 08:10:09;;;;;;;9.20;6.38;;;;;;;17.94;42.79;102635.63;5049241;28;20053;-74
2021/09/22 08:12:35;;;;;;;10.00;6.65;;;;;;;17.96;42.80;102636.38;5048224;28;20080;-74
2021/09/22 08:15:02;;;;;;;8.95;6.25;;;;;;;18.01;42.68;102633.31;5031217;28;20510;-75
2021/09/22 08:17:29;;;;;;;10.90;6.38;;;;;;;18.05;42.53;102632.09;5048975;28;20049;-75
2021/09/22 08:19:55;;;;;;;9.77;6.20;;;;;;;18.08;42.65;102640.13;5030919;28;20131;-75
2021/09/22 08:22:22;;;;;;;8.73;5.88;;;;;;;18.14;42.64;102634.19;5048535;28;20081;-74
2021/09/22 08:24:50;;;;;;;10.40;6.03;;;;;;;18.18;42.62;102636.66;4989286;28;20476;-74
2021/09/22 08:27:16;;;;;;;9.43;6.50;;;;;;;18.23;42.98;102637.19;5048463;28;20128;-75
2021/09/22 08:29:43;;;;;;;10.23;6.43;;;;;;;18.27;43.13;102631.47;5038117;28;20125;-75
2021/09/22 08:32:10;;;;;;;11.10;6.82;;;;;;;18.33;42.71;102631.91;5030890;28;20057;-74
2021/09/22 08:34:36;;;;;;;9.30;6.18;;;;;;;18.38;42.97;102613.22;5028346;28;20136;-75
2021/09/22 08:37:03;;;;;;;10.10;6.78;;;;;;;18.42;43.08;102614.75;5030499;28;20053;-75
2021/09/22 08:39:32;;;;;;;10.50;7.03;;;;;;;18.47;42.85;102620.81;5047648;28;20460;-75
2021/09/22 08:42:04;;;;;;;8.68;6.40;;;;;;;18.56;43.14;102614.66;5048324;28;20053;-76
2021/09/22 08:44:31;;;;;;;9.57;5.75;;;;;;;18.59;42.89;102614.47;5047620;28;20049;-76
2021/09/22 08:46:58;;;;;;;10.63;6.70;;;;;;;18.66;42.98;102619.50;5030691;28;20127;-75
2021/09/22 08:49:25;;;;;;;10.63;6.43;;;;;;;18.70;42.94;102613.66;5029578;28;20421;-75
2021/09/22 08:51:52;;;;;;;10.00;6.70;;;;;;;18.75;42.98;102611.47;5029653;28;20152;-75
2021/09/22 08:54:19;;;;;;;10.02;6.57;;;;;;;18.81;42.57;102615.63;5027612;28;20169;-75
2021/09/22 08:56:45;;;;;;;10.73;7.28;;;;;;;18.86;42.62;102611.53;5033684;28;20045;-75
2021/09/22 08:59:14;;;;;;;9.25;6.35;;;;;;;18.94;42.62;102609.09;5047693;28;20541;-76
2021/09/22 09:01:42;;;;;;;10.55;6.78;;;;;;;19.00;42.87;102602.28;5048108;28;20079;-74
2021/09/22 09:04:18;;;;;;;11.20;7.18;;;;;;;19.10;43.17;102602.47;5047031;28;20040;-75
2021/09/22 09:06:54;;;;;;;9.70;6.57;;;;;;;19.16;42.67;102602.00;5047839;28;20056;-75
2021/09/22 09:09:34;;;;;;;10.93;6.85;;;;;;;19.25;42.78;102604.06;5029318;28;20067;-75
2021/09/22 09:12:01;;;;;;;9.68;6.70;;;;;;;19.29;43.06;102600.06;5030275;28;20092;-76
2021/09/22 09:14:33;;;;;;;9.40;6.43;;;;;;;19.40;42.77;102600.13;5045650;28;20168;-75
2021/09/22 09:17:01;;;;;;;9.05;6.35;;;;;;;19.44;43.07;102598.00;5047485;28;20064;-74
2021/09/22 09:19:27;;;;;;;10.48;7.10;;;;;;;19.56;42.58;102597.09;5029058;28;20128;-75
2021/09/22 09:21:57;;;;;;;11.00;7.28;;;;;;;19.67;42.58;102600.81;5047852;28;20073;-74
2021/09/22 09:24:42;;;;;;;10.52;7.32;;;;;;;19.76;42.41;102596.44;5046505;28;20132;-75
2021/09/22 09:27:10;;;;;;;10.63;7.47;;;;;;;19.83;42.74;102591.34;5029960;28;20052;-75
2021/09/22 09:29:40;;;;;;;9.25;6.75;;;;;;;19.93;42.23;102590.47;5037051;28;20547;-75
2021/09/22 09:32:14;;;;;;;11.73;6.78;;;;;;;20.05;42.22;102592.28;5047736;28;20118;-75
2021/09/22 09:34:56;;;;;;;;;;;;;;;19.83;43.01;102583.94;5046798;28;20056;-75
2021/09/22 09:37:37;;;;;;;9.95;5.97;;;;;;;20.20;41.95;102587.41;5029087;28;19921;-76
2021/09/22 09:40:26;;;;;;;10.82;6.57;;;;;;;20.31;42.06;102587.44;5047514;28;20072;-75
2021/09/22 09:42:52;;;;;;;8.98;6.70;;;;;;;20.40;42.33;102580.31;5028709;28;20068;-75
2021/09/22 09:45:21;;;;;;;9.93;6.90;;;;;;;20.51;41.94;102569.28;5029989;28;20071;-74
2021/09/22 09:48:10;;;;;;;12.07;6.63;;;;;;;20.62;41.68;102577.56;5027734;28;20045;-76
2021/09/22 09:50:40;;;;;;;12.00;7.18;;;;;;;20.71;41.59;102573.16;5029709;28;20049;-75
2021/09/22 09:53:08;;;;;;;10.30;7.15;;;;;;;20.81;41.20;102572.28;5043747;28;20161;-75
2021/09/22 09:55:39;;;;;;;11.73;7.40;;;;;;;20.92;41.07;102570.53;5047164;28;20137;-75
2021/09/22 09:58:06;;;;;;;10.32;7.13;;;;;;;20.97;41.58;102571.00;5046059;28;20467;-75
2021/09/22 10:00:39;;;;;;;11.50;6.85;;;;;;;21.09;41.05;102559.78;5047521;28;20880;-75
2021/09/22 10:03:09;;;;;;;;;;;;;;;20.87;41.65;102563.50;5041732;28;20102;-76
2021/09/22 10:05:36;;;;;;;9.30;6.00;;;;;;;21.20;41.42;102557.03;5047023;28;19921;-74
2021/09/22 10:08:03;;;;;;;10.32;6.85;;;;;;;21.34;41.24;102557.75;5028471;28;20055;-76
2021/09/22 10:10:32;;;;;;;11.40;6.97;;;;;;;21.46;41.36;102551.19;5046738;28;20048;-75
2021/09/22 10:13:01;;;;;;;9.60;6.88;;;;;;;21.58;40.94;102558.41;5045898;28;20724;-74
2021/09/22 10:15:29;;;;;;;11.18;7.63;;;;;;;21.67;40.69;102553.97;5047043;28;20140;-75
2021/09/22 10:17:57;;;;;;;10.30;7.63;;;;;;;21.79;40.75;102559.31;5027856;28;20055;-76
2021/09/22 10:20:24;;;;;;;9.98;7.35;;;;;;;21.90;40.82;102553.72;5046863;28;20500;-75
2021/09/22 10:22:50;;;;;;;10.95;7.80;;;;;;;22.01;40.25;102555.56;5027880;28;20116;-74
2021/09/22 10:25:21;;;;;;;11.55;7.72;;;;;;;22.16;40.33;102545.91;5046276;28;20041;-76
2021/09/22 10:27:49;;;;;;;9.88;7.20;;;;;;;22.25;40.22;102541.44;5045596;28;20136;-78
2021/09/22 10:30:17;;;;;;;10.18;7.22;;;;;;;22.36;39.82;102542.22;5028727;28;20087;-74
2021/09/22 10:32:49;;;;;;;12.52;7.03;;;;;;;22.51;39.60;102539.09;5045745;28;20317;-75
2021/09/22 10:35:25;;;;;;;10.18;7.00;;;;;;;22.59;39.80;102542.91;5046431;28;20136;-75
2021/09/22 10:37:59;;;;;;;10.57;7.18;;;;;;;22.72;39.95;102537.16;5026877;28;20064;-75
2021/09/22 10:40:38;;;;;;;10.20;6.55;;;;;;;22.84;39.70;102536.03;5028619;28;20736;-74
2021/09/22 10:43:13;;;;;;;10.68;7.15;;;;;;;22.96;38.94;102520.19;5045272;28;20574;-75
2021/09/22 10:45:41;;;;;;;9.65;7.30;;;;;;;23.03;38.81;102527.78;5045883;28;20067;-74
2021/09/22 10:48:23;;;;;;;10.00;6.78;;;;;;;23.16;38.17;102530.25;5027527;28;20045;-75
2021/09/22 10:50:55;;;;;;;10.93;7.50;;;;;;;23.25;38.04;102518.31;5046442;28;20147;-75
2021/09/22 10:53:31;;;;;;;11.75;7.65;;;;;;;23.34;38.07;102514.69;5027573;28;20049;-75
2021/09/22 10:56:01;;;;;;;11.95;7.93;;;;;;;23.43;38.11;102515.69;5045822;28;20133;-75
2021/09/22 10:58:46;;;;;;;11.15;7.68;;;;;;;23.50;37.99;102508.59;5044291;28;20460;-76
2021/09/22 11:01:33;;;;;;;13.10;8.30;;;;;;;23.54;37.28;102506.41;5028410;28;20077;-75
2021/09/22 11:04:04;;;;;;;11.50;7.53;;;;;;;23.63;37.68;102506.41;5027370;28;20142;-75
2021/09/22 11:06:43;;;;;;;9.93;7.10;;;;;;;23.72;36.67;102501.88;5045409;28;20131;-75
2021/09/22 11:09:23;;;;;;;11.50;7.00;;;;;;;23.74;37.69;102502.56;5044667;28;20132;-74
2021/09/22 11:11:55;;;;;;;10.07;6.57;;;;;;;23.84;36.73;102496.00;5028156;28;20091;-74
2021/09/22 11:14:41;;;;;;;9.80;7.00;;;;;;;23.88;36.87;102489.09;5027101;28;20091;-75
2021/09/22 11:17:23;;;;;;;11.00;6.78;;;;;;;23.96;36.41;102490.28;5027393;28;20049;-75
2021/09/22 11:19:53;;;;;;;9.70;6.63;;;;;;;24.00;36.46;102488.94;5027476;28;20087;-75
2021/09/22 11:22:26;;;;;;;9.98;6.68;;;;;;;24.09;35.83;102491.69;5027922;28;20053;-73
2021/09/22 11:25:00;;;;;;;11.15;7.65;;;;;;;24.15;36.15;102487.41;5027233;28;20059;-75
2021/09/22 11:27:28;;;;;;;10.95;8.18;;;;;;;24.19;36.04;102484.22;5045242;28;20476;-75
2021/09/22 11:30:01;;;;;;;11.48;8.02;;;;;;;24.26;36.30;102484.50;5044734;28;20051;-74